メインページ
METAR-TAF:

METAR-TAF

空港 :

ウラジオストク国際空港

ウラジオストク, ロシア

緯度: 43-07N, 経度: 131-56E, 海抜: 184m

現時点の気象観測

当レポートは40分前の12:30(UTC)に作成
の風 2kt
気温 0°C
湿度 80%
気圧 1019 hPa
視程10km以上

METAR: UHWW 161230Z 35001MPS 9999 NSC 00/M03 Q1019 R25L/0///70 NOSIG RMK QFE763

時間: 23:10 (13:10 UTC)

予報

当レポートは2時間10分前の11:00(UTC)に作成
予報は16日の 12時(UTC)から 17日の 12時(UTC)まで有効
の風 6kt
視程10km以上
高度3000ftの雲は散在している
16日の 14時(UTC)から 16日の 23時(UTC)まで一時的に
視程: 5000m

TAF: UHWW 161100Z 1612/1712 36003MPS 9999 SCT030 TEMPO 1614/1623 5000 FU

4,000以上の空港の気象観測と天気予報(METAR報とTAF報)

利用可能な観測所は地図上に黄色い丸と赤い丸で示す。

丸の上にカーソルを重ねると観測所名を参照できる。

次にクリックすると気象観測と天気予報を参照できる。

マップの切り替え:黒色「×」印の緑ボタンをクリックして拡大、「-」印の緑ボタンをクリックして縮小、緑色の三角印をクリックして隣りの地図に切り替え


METAR-TAF: